createdAt,value
2023-05-05T04:00:28.940Z,996.30
2023-05-05T04:05:28.842Z,996.27
2023-05-05T04:10:28.830Z,996.28
2023-05-05T04:15:28.767Z,996.29
2023-05-05T04:20:28.757Z,996.41
2023-05-05T04:25:28.631Z,996.49
2023-05-05T04:30:28.620Z,996.50
2023-05-05T04:35:28.520Z,996.52
2023-05-05T04:40:28.491Z,996.56
2023-05-05T04:45:28.423Z,996.54
2023-05-05T04:50:28.373Z,996.59
2023-05-05T04:55:28.314Z,996.68
2023-05-05T05:00:28.301Z,996.73
2023-05-05T05:05:28.189Z,996.82
2023-05-05T05:10:28.127Z,996.84
2023-05-05T05:15:28.123Z,996.91
2023-05-05T05:20:28.045Z,996.99
2023-05-05T05:25:27.962Z,996.91
2023-05-05T05:30:27.911Z,996.90
2023-05-05T05:35:27.854Z,996.89
2023-05-05T05:40:27.816Z,996.98
2023-05-05T05:45:27.744Z,997.02
2023-05-05T05:50:27.694Z,997.01
2023-05-05T05:55:27.637Z,997.02
2023-05-05T06:00:27.609Z,997.03
2023-05-05T06:05:27.709Z,997.06
2023-05-05T06:10:28.517Z,997.08
2023-05-05T06:15:27.434Z,997.06
2023-05-05T06:20:27.397Z,997.07
2023-05-05T06:25:27.325Z,997.11
2023-05-05T06:30:27.276Z,997.17
2023-05-05T06:35:27.205Z,997.14
2023-05-05T06:40:27.181Z,997.16
2023-05-05T06:45:27.100Z,997.22
2023-05-05T06:50:27.067Z,997.28
2023-05-05T06:55:26.999Z,997.35
2023-05-05T07:00:27.092Z,997.21
2023-05-05T07:05:26.895Z,997.28
2023-05-05T07:10:26.849Z,997.34
2023-05-05T07:15:29.144Z,997.47
2023-05-05T07:20:27.076Z,997.56
2023-05-05T07:25:26.680Z,997.53
2023-05-05T07:30:26.643Z,997.55
2023-05-05T07:35:26.588Z,997.62
2023-05-05T07:40:26.713Z,997.73
2023-05-05T07:45:26.468Z,997.71
2023-05-05T07:50:26.518Z,997.71
2023-05-05T07:55:26.362Z,997.68
2023-05-05T08:00:26.408Z,997.72
2023-05-05T08:05:26.255Z,997.66
2023-05-05T08:10:26.274Z,997.72
2023-05-05T08:15:26.148Z,997.67
2023-05-05T08:20:26.182Z,997.62
2023-05-05T08:25:26.044Z,997.67
2023-05-05T08:30:25.989Z,997.63
2023-05-05T08:35:25.952Z,997.64
2023-05-05T08:40:26.056Z,997.55
2023-05-05T08:45:25.833Z,997.61
2023-05-05T08:50:25.777Z,997.62
2023-05-05T08:55:25.831Z,997.65
2023-05-05T09:00:25.801Z,997.72
2023-05-05T09:05:25.617Z,997.70
2023-05-05T09:10:25.576Z,997.79
2023-05-05T09:15:25.509Z,997.78
2023-05-05T09:20:25.576Z,997.82
2023-05-05T09:25:25.415Z,997.76
2023-05-05T09:30:25.361Z,997.85
2023-05-05T09:35:25.327Z,997.83
2023-05-05T09:40:25.368Z,997.80
2023-05-05T09:45:25.200Z,997.80
2023-05-05T09:50:25.137Z,997.80
2023-05-05T09:55:25.088Z,997.80
2023-05-05T10:00:25.203Z,997.70
2023-05-05T10:05:25.204Z,997.58
2023-05-05T10:10:25.752Z,997.50
2023-05-05T10:15:24.867Z,997.56
2023-05-05T10:20:24.914Z,997.47
2023-05-05T10:25:24.948Z,997.36
2023-05-05T10:30:24.724Z,997.28
2023-05-05T10:35:24.681Z,997.29
2023-05-05T10:40:24.799Z,997.15
2023-05-05T10:45:24.606Z,997.12
2023-05-05T10:50:24.513Z,997.01
2023-05-05T10:55:24.442Z,997.09
2023-05-05T11:00:24.442Z,997.07
2023-05-05T11:05:24.355Z,997.00
2023-05-05T11:10:24.309Z,997.02
2023-05-05T11:15:24.388Z,996.95
2023-05-05T11:20:24.309Z,996.93
2023-05-05T11:25:24.132Z,996.87
2023-05-05T11:30:24.082Z,996.99
2023-05-05T11:35:24.023Z,996.92
2023-05-05T11:40:24.061Z,996.93
2023-05-05T11:45:24.149Z,997.05
2023-05-05T11:50:23.859Z,997.23
2023-05-05T11:55:23.811Z,997.29
2023-05-05T12:00:23.855Z,997.52
2023-05-05T12:05:23.703Z,997.61
2023-05-05T12:10:23.653Z,997.50
2023-05-05T12:15:23.608Z,997.61
2023-05-05T12:20:23.653Z,997.72
2023-05-05T12:25:23.507Z,997.47
2023-05-05T12:30:23.469Z,997.20
2023-05-05T12:35:23.400Z,997.29
2023-05-05T12:40:23.342Z,997.28
2023-05-05T12:45:23.278Z,997.21
2023-05-05T12:50:23.417Z,997.11
2023-05-05T12:55:23.158Z,997.12
2023-05-05T13:00:23.185Z,997.10
2023-05-05T13:05:23.066Z,997.06
2023-05-05T13:10:23.027Z,997.08
2023-05-05T13:15:22.950Z,997.15
2023-05-05T13:20:22.989Z,997.14
2023-05-05T13:25:22.827Z,997.19
2023-05-05T13:30:22.783Z,997.23
2023-05-05T13:35:22.749Z,997.15
2023-05-05T13:40:25.655Z,997.18
2023-05-05T13:45:22.628Z,997.15
2023-05-05T13:50:22.605Z,997.05
2023-05-05T13:55:22.511Z,996.93
2023-05-05T14:00:22.582Z,996.89
2023-05-05T14:05:22.411Z,996.81
2023-05-05T14:10:22.366Z,996.77
2023-05-05T14:15:22.305Z,996.73
2023-05-05T14:20:22.467Z,996.72
2023-05-05T14:25:22.213Z,996.66
2023-05-05T14:30:22.162Z,996.56
2023-05-05T14:35:22.097Z,996.54
2023-05-05T14:40:22.068Z,996.52
2023-05-05T14:45:21.986Z,996.55
2023-05-05T14:50:21.930Z,996.50
2023-05-05T14:55:21.875Z,996.57
2023-05-05T15:00:21.850Z,996.66
2023-05-05T15:05:21.767Z,996.71
2023-05-05T15:10:22.117Z,996.81
2023-05-05T15:15:21.670Z,997.06
2023-05-05T15:20:21.644Z,997.26
2023-05-05T15:25:21.545Z,997.51
2023-05-05T15:30:21.500Z,997.55
2023-05-05T15:35:21.438Z,997.61
2023-05-05T15:40:21.480Z,997.63
2023-05-05T15:45:21.329Z,997.53
2023-05-05T15:50:21.272Z,997.37
2023-05-05T15:55:21.223Z,997.27
2023-05-05T16:00:21.319Z,997.24
2023-05-05T16:05:22.977Z,997.16
2023-05-05T16:10:21.065Z,997.04
2023-05-05T16:15:28.243Z,997.07
2023-05-05T16:20:20.931Z,997.13
2023-05-05T16:25:20.890Z,997.07
2023-05-05T16:30:20.817Z,997.10
2023-05-05T16:35:20.926Z,997.22
2023-05-05T16:40:20.927Z,997.16
2023-05-05T16:45:20.657Z,997.23
2023-05-05T16:50:20.626Z,997.24
2023-05-05T16:55:20.603Z,997.32
2023-05-05T17:00:20.545Z,997.21
2023-05-05T17:05:20.491Z,997.18
2023-05-05T17:10:20.389Z,997.19
2023-05-05T17:15:20.378Z,997.23
2023-05-05T17:20:20.312Z,997.30
2023-05-05T17:25:20.232Z,997.17
2023-05-05T17:30:20.176Z,997.13
2023-05-05T17:35:20.249Z,997.18
2023-05-05T17:40:20.070Z,997.09
2023-05-05T17:45:20.088Z,997.16
2023-05-05T17:50:19.957Z,997.21
2023-05-05T17:55:20.210Z,997.18
2023-05-05T18:00:19.837Z,997.34
2023-05-05T18:05:19.794Z,997.31
2023-05-05T18:10:19.771Z,997.47
2023-05-05T18:15:19.817Z,997.59
2023-05-05T18:20:19.650Z,997.47
2023-05-05T18:25:19.605Z,997.70
2023-05-05T18:30:19.687Z,997.71
2023-05-05T18:35:19.552Z,997.77
2023-05-05T18:40:19.406Z,997.68
2023-05-05T18:45:19.369Z,997.58
2023-05-05T18:50:19.287Z,997.61
2023-05-05T18:55:19.386Z,997.63
2023-05-05T19:00:19.193Z,997.53
2023-05-05T19:05:19.136Z,997.57
2023-05-05T19:10:19.088Z,997.58
2023-05-05T19:15:19.117Z,997.42
2023-05-05T19:20:18.972Z,997.63
2023-05-05T19:25:18.948Z,997.64
2023-05-05T19:30:18.855Z,997.61
2023-05-05T19:35:18.924Z,997.68
2023-05-05T19:40:18.752Z,997.58
2023-05-05T19:45:18.695Z,997.67
2023-05-05T19:50:18.667Z,997.75
2023-05-05T19:55:18.736Z,997.75
2023-05-05T20:00:18.548Z,997.76
2023-05-05T20:05:18.503Z,997.76
2023-05-05T20:10:18.422Z,997.70
2023-05-05T20:15:18.394Z,997.67
2023-05-05T20:20:18.308Z,997.71
2023-05-05T20:25:18.283Z,997.67
2023-05-05T20:30:18.204Z,997.79
2023-05-05T20:35:18.252Z,997.73
2023-05-05T20:40:18.089Z,997.77
2023-05-05T20:45:18.037Z,997.72
2023-05-05T20:50:18.008Z,997.78
2023-05-05T20:55:18.051Z,997.81
2023-05-05T21:00:17.863Z,997.78
2023-05-05T21:05:17.817Z,997.76
2023-05-05T21:10:17.755Z,997.87
2023-05-05T21:15:17.834Z,997.84
2023-05-05T21:20:17.654Z,997.81
2023-05-05T21:25:17.658Z,997.76
2023-05-05T21:30:17.833Z,997.69
2023-05-05T21:35:17.580Z,997.73
2023-05-05T21:40:17.438Z,997.75
2023-05-05T21:45:17.529Z,997.75
2023-05-05T21:50:17.341Z,997.78
2023-05-05T21:55:17.306Z,997.75
2023-05-05T22:00:17.241Z,997.85
2023-05-05T22:05:17.176Z,997.81
2023-05-05T22:10:17.096Z,997.83
2023-05-05T22:15:27.506Z,997.80
2023-05-05T22:20:18.010Z,997.78
2023-05-05T22:25:16.946Z,997.74
2023-05-05T22:30:16.896Z,997.87
2023-05-05T22:35:16.924Z,997.88
2023-05-05T22:40:16.794Z,997.89
2023-05-05T22:45:16.735Z,997.94
2023-05-05T22:50:16.672Z,997.90
2023-05-05T22:55:16.714Z,997.90
2023-05-05T23:00:16.588Z,998.00
2023-05-05T23:05:16.506Z,997.88
2023-05-05T23:10:16.456Z,997.91
2023-05-05T23:15:16.494Z,997.93
2023-05-05T23:20:16.351Z,997.91
2023-05-05T23:25:16.291Z,997.88
